Time;durP1;ratioP1;P1;durP2;ratioP2;P2;SDS_P1;SDS_P2;PMS_P1;PMS_P2;Temp;Humidity;BMP_temperature;BMP_pressure;BME280_temperature;BME280_humidity;BME280_pressure;Samples;Min_cycle;Max_cycle;Signal;HPM_P1;HPM_P2
2022/10/20 00:01:48;;;;;;;13.25;6.18;;;;;;;9.43;100.00;101666.31;5094220;28;20031;-66
2022/10/20 00:04:13;;;;;;;10.20;5.97;;;;;;;9.41;100.00;101668.00;5093318;28;20036;-66
2022/10/20 00:06:39;;;;;;;12.38;5.78;;;;;;;9.41;100.00;101665.38;5090459;28;20104;-66
2022/10/20 00:09:05;;;;;;;9.23;5.45;;;;;;;9.41;100.00;101673.25;5077490;28;20028;-66
2022/10/20 00:11:31;;;;;;;10.75;6.15;;;;;;;9.38;100.00;101667.00;5091375;28;20129;-67
2022/10/20 00:13:58;;;;;;;10.95;6.05;;;;;;;9.38;100.00;101662.63;5080238;28;20021;-67
2022/10/20 00:16:26;;;;;;;8.80;5.80;;;;;;;9.36;100.00;101652.91;5086687;28;20020;-67
2022/10/20 00:18:51;;;;;;;9.32;6.32;;;;;;;9.35;100.00;101652.03;5095620;28;20024;-67
2022/10/20 00:21:22;;;;;;;10.30;5.72;;;;;;;9.34;100.00;101650.22;5082212;28;20043;-68
2022/10/20 00:23:48;;;;;;;11.40;6.30;;;;;;;9.35;100.00;101645.88;5088121;28;20020;-67
2022/10/20 00:26:16;;;;;;;15.77;6.32;;;;;;;9.33;100.00;101648.44;5085130;28;20024;-67
2022/10/20 00:28:43;;;;;;;8.73;6.60;;;;;;;9.35;100.00;101652.03;5086209;28;20024;-67
2022/10/20 00:31:08;;;;;;;11.75;6.60;;;;;;;9.32;100.00;101649.28;5089607;28;20020;-67
2022/10/20 00:33:34;;;;;;;14.38;6.65;;;;;;;9.31;100.00;101644.88;5095454;28;20414;-66
2022/10/20 00:36:01;;;;;;;12.90;6.68;;;;;;;9.32;100.00;101637.88;5094478;28;20115;-67
2022/10/20 00:38:27;;;;;;;10.07;6.72;;;;;;;9.32;100.00;101628.28;5088922;28;20012;-68
2022/10/20 00:40:52;;;;;;;15.23;7.03;;;;;;;9.28;100.00;101621.13;5093228;28;20111;-68
2022/10/20 00:43:17;;;;;;;8.90;6.95;;;;;;;9.27;100.00;101621.97;5094811;28;20123;-66
2022/10/20 00:45:50;;;;;;;12.88;7.20;;;;;;;9.28;100.00;101623.75;5090074;28;20462;-67
2022/10/20 00:48:20;;;;;;;10.77;6.38;;;;;;;9.26;100.00;101625.44;5093866;28;20020;-68
2022/10/20 00:50:51;;;;;;;11.95;6.90;;;;;;;9.23;100.00;101620.09;5094726;28;20031;-68
2022/10/20 00:53:17;;;;;;;9.82;6.22;;;;;;;9.20;100.00;101612.09;5092885;28;20024;-67
2022/10/20 00:55:46;;;;;;;14.05;7.72;;;;;;;9.18;100.00;101616.41;5089495;28;20537;-66
2022/10/20 00:58:12;;;;;;;11.68;7.00;;;;;;;9.16;100.00;101618.97;5081301;28;20051;-68
2022/10/20 01:00:40;;;;;;;18.10;7.22;;;;;;;9.19;100.00;101620.81;5083901;28;20053;-67
2022/10/20 01:03:11;;;;;;;13.10;6.65;;;;;;;9.19;100.00;101612.94;5081172;28;20051;-67
2022/10/20 01:05:37;;;;;;;15.13;7.47;;;;;;;9.19;100.00;101629.56;5094574;28;20038;-66
2022/10/20 01:08:03;;;;;;;13.20;7.53;;;;;;;9.19;100.00;101612.94;5089412;28;20032;-67
2022/10/20 01:10:38;;;;;;;13.50;7.43;;;;;;;9.18;100.00;101603.28;5091245;28;20036;-66
2022/10/20 01:13:26;;;;;;;13.65;7.57;;;;;;;9.17;100.00;101604.09;5089190;28;20047;-67
2022/10/20 01:16:00;;;;;;;16.75;8.57;;;;;;;9.15;100.00;101606.69;5088156;28;20456;-67
2022/10/20 01:19:07;;;;;;;12.88;7.63;;;;;;;9.16;100.00;101586.59;5088935;28;20024;-67
2022/10/20 01:22:00;;;;;;;15.18;7.72;;;;;;;9.14;100.00;101568.13;5089597;28;20042;-68
2022/10/20 01:24:38;;;;;;;13.00;7.38;;;;;;;9.09;100.00;101567.09;5092647;28;20035;-67
2022/10/20 01:27:26;;;;;;;11.48;8.05;;;;;;;9.09;100.00;101565.34;5086561;28;20105;-66
2022/10/20 01:30:04;;;;;;;15.23;8.05;;;;;;;9.07;100.00;101550.38;5091552;28;20027;-66
2022/10/20 01:32:37;;;;;;;13.90;7.43;;;;;;;9.01;100.00;101548.44;5076142;28;20040;-65
2022/10/20 01:35:13;;;;;;;15.90;8.30;;;;;;;8.99;100.00;101567.59;5089959;28;20051;-67
2022/10/20 01:37:51;;;;;;;10.45;7.85;;;;;;;8.94;100.00;101559.59;5088904;28;20020;-67
2022/10/20 01:40:45;;;;;;;15.20;8.30;;;;;;;8.90;100.00;101547.19;5088066;28;20109;-67
2022/10/20 01:43:13;;;;;;;15.68;8.38;;;;;;;8.87;100.00;101552.31;5085344;28;20142;-67
2022/10/20 01:45:43;;;;;;;20.17;8.60;;;;;;;8.84;100.00;101552.22;5093806;28;20035;-67
2022/10/20 01:48:12;;;;;;;13.75;7.88;;;;;;;8.83;100.00;101553.06;5078980;28;20025;-67
2022/10/20 01:50:39;;;;;;;15.90;7.28;;;;;;;8.82;100.00;101546.00;5086045;28;20460;-67
2022/10/20 01:53:05;;;;;;;13.57;8.65;;;;;;;8.80;100.00;101539.84;5091072;28;20028;-68
2022/10/20 01:55:31;;;;;;;23.40;8.70;;;;;;;8.79;100.00;101531.06;5085401;28;20035;-67
2022/10/20 01:58:23;;;;;;;18.42;8.75;;;;;;;8.80;100.00;101514.47;5083873;28;20059;-67
2022/10/20 02:00:51;;;;;;;13.05;8.45;;;;;;;8.75;100.00;101505.56;5083608;28;20486;-66
2022/10/20 02:03:35;;;;;;;11.63;8.07;;;;;;;8.73;100.00;101501.97;5092773;28;20024;-66
2022/10/20 02:06:10;;;;;;;;;;;;;;;8.72;100.00;101495.84;5092358;28;20032;-66
2022/10/20 02:08:46;;;;;;;;;;;;;;;8.71;100.00;101496.69;5082377;28;20305;-67
2022/10/20 02:11:38;;;;;;;17.13;8.40;;;;;;;8.69;100.00;101489.59;5084563;28;20287;-67
2022/10/20 02:14:04;;;;;;;12.80;8.00;;;;;;;8.65;100.00;101477.22;5064280;28;20687;-67
2022/10/20 02:16:35;;;;;;;14.98;9.45;;;;;;;8.64;100.00;101481.59;5084870;28;20104;-66
2022/10/20 02:19:04;;;;;;;16.67;8.55;;;;;;;8.66;100.00;101482.50;5076375;28;20074;-68
2022/10/20 02:21:30;;;;;;;13.40;8.90;;;;;;;8.65;100.00;101472.84;5079516;28;20021;-66
2022/10/20 02:24:02;;;;;;;14.10;9.30;;;;;;;8.67;100.00;101467.66;5089263;28;20388;-66
2022/10/20 02:26:29;;;;;;;14.30;8.18;;;;;;;8.66;100.00;101469.41;5083710;28;20107;-67
2022/10/20 02:28:59;;;;;;;16.05;8.30;;;;;;;8.67;100.00;101455.44;5080960;28;20502;-67
2022/10/20 02:31:25;;;;;;;16.17;9.10;;;;;;;8.67;100.00;101441.41;5086529;28;20027;-67
2022/10/20 02:33:52;;;;;;;16.35;9.07;;;;;;;8.69;100.00;101437.13;5086575;28;20024;-69
2022/10/20 02:36:19;;;;;;;31.30;10.57;;;;;;;8.65;100.00;101436.13;5090343;28;20016;-68
2022/10/20 02:38:45;;;;;;;16.63;9.25;;;;;;;8.63;100.00;101429.94;5090368;28;20028;-68
2022/10/20 02:41:11;;;;;;;16.48;9.50;;;;;;;8.64;100.00;101430.81;5084403;28;20058;-66
2022/10/20 02:43:36;;;;;;;14.75;9.20;;;;;;;8.64;100.00;101418.63;5086992;28;20028;-66
2022/10/20 02:46:01;;;;;;;14.25;9.40;;;;;;;8.62;100.00;101417.66;5090213;28;20028;-67
2022/10/20 02:48:27;;;;;;;17.27;9.63;;;;;;;8.61;100.00;101418.50;5078289;28;20098;-67
2022/10/20 02:50:52;;;;;;;16.85;10.70;;;;;;;8.61;100.00;101415.88;5082237;28;20031;-67
2022/10/20 02:53:18;;;;;;;22.92;10.27;;;;;;;8.61;100.00;101400.13;5076829;28;20043;-68
2022/10/20 02:55:43;;;;;;;18.17;10.63;;;;;;;8.64;100.00;101402.88;5089975;28;20020;-67
2022/10/20 02:58:08;;;;;;;26.20;10.68;;;;;;;8.68;100.00;101409.09;5083729;28;20155;-67
2022/10/20 03:00:34;;;;;;;25.75;10.90;;;;;;;8.69;100.00;101403.91;5084129;28;20032;-67
2022/10/20 03:02:59;;;;;;;20.17;10.98;;;;;;;8.71;100.00;101399.59;5084998;28;20419;-67
2022/10/20 03:05:25;;;;;;;22.40;10.88;;;;;;;8.72;100.00;101390.91;5078803;28;20031;-67
2022/10/20 03:07:51;;;;;;;21.38;10.90;;;;;;;8.74;100.00;101383.09;5092310;28;20095;-67
2022/10/20 03:10:17;;;;;;;22.75;11.13;;;;;;;8.74;100.00;101378.72;5092472;28;20490;-68
2022/10/20 03:12:43;;;;;;;18.42;10.25;;;;;;;8.76;100.00;101377.03;5077805;28;20450;-67
2022/10/20 03:15:08;;;;;;;20.08;11.57;;;;;;;8.78;100.00;101375.34;5089201;28;20118;-68
2022/10/20 03:17:34;;;;;;;17.90;11.02;;;;;;;8.79;100.00;101381.50;5089994;28;20040;-67
2022/10/20 03:19:59;;;;;;;24.42;12.43;;;;;;;8.80;100.00;101371.88;5090561;28;20029;-67
2022/10/20 03:22:24;;;;;;;20.33;12.13;;;;;;;8.84;100.00;101358.03;5095631;28;20498;-67
2022/10/20 03:24:50;;;;;;;21.20;12.43;;;;;;;8.86;100.00;101361.59;5092549;28;20035;-67
2022/10/20 03:27:15;;;;;;;24.63;13.02;;;;;;;8.87;100.00;101355.47;5093771;28;20107;-67
2022/10/20 03:29:40;;;;;;;20.40;12.48;;;;;;;8.91;100.00;101349.50;5081486;28;20107;-67
2022/10/20 03:32:06;;;;;;;20.17;11.18;;;;;;;8.91;100.00;101349.50;5093581;28;20024;-67
2022/10/20 03:34:31;;;;;;;20.73;11.57;;;;;;;8.91;100.00;101352.13;5095815;28;20048;-68
2022/10/20 03:36:56;;;;;;;22.23;12.07;;;;;;;8.93;100.00;101335.56;5092410;28;20028;-66
2022/10/20 03:39:22;;;;;;;18.90;11.73;;;;;;;8.96;100.00;101342.66;5077077;28;20366;-66
2022/10/20 03:41:47;;;;;;;27.42;12.15;;;;;;;8.97;100.00;101357.56;5092547;28;20085;-67
2022/10/20 03:44:12;;;;;;;30.13;13.00;;;;;;;8.98;100.00;101355.81;5089254;28;20020;-67
2022/10/20 03:46:38;;;;;;;22.23;12.25;;;;;;;8.97;100.00;101344.44;5082629;28;20024;-67
2022/10/20 03:49:03;;;;;;;22.42;11.98;;;;;;;8.99;100.00;101341.88;5093415;28;20024;-67
2022/10/20 03:51:28;;;;;;;25.33;13.70;;;;;;;8.99;100.00;101327.00;5093506;28;20107;-68
2022/10/20 03:53:54;;;;;;;26.27;12.80;;;;;;;9.04;100.00;101329.78;5095491;28;20022;-67
2022/10/20 03:56:20;;;;;;;27.92;13.00;;;;;;;9.05;100.00;101327.19;5087678;28;20080;-67
2022/10/20 03:58:46;;;;;;;19.95;12.27;;;;;;;9.06;100.00;101328.97;5089301;28;20036;-67
2022/10/20 04:01:17;;;;;;;24.20;13.10;;;;;;;9.09;100.00;101328.19;5086663;28;20024;-66
2022/10/20 04:03:46;;;;;;;22.30;13.38;;;;;;;9.11;100.00;101335.28;5093549;28;20036;-67
2022/10/20 04:06:12;;;;;;;23.67;12.52;;;;;;;9.13;100.00;101344.91;5077716;28;20480;-67
2022/10/20 04:08:37;;;;;;;22.42;12.35;;;;;;;9.14;100.00;101342.31;5082852;28;20024;-65
2022/10/20 04:11:03;;;;;;;26.80;13.85;;;;;;;9.14;100.00;101349.31;5089977;28;20023;-67
2022/10/20 04:13:28;;;;;;;27.40;13.73;;;;;;;9.16;100.00;101339.78;5094080;28;20406;-66
2022/10/20 04:15:53;;;;;;;23.92;13.38;;;;;;;9.16;100.00;101334.53;5089196;28;20051;-67
2022/10/20 04:18:19;;;;;;;24.50;13.00;;;;;;;9.17;100.00;101324.06;5094540;28;20032;-67
2022/10/20 04:20:46;;;;;;;27.80;13.70;;;;;;;9.20;100.00;101329.41;5092222;28;20402;-66
2022/10/20 04:23:12;;;;;;;23.17;12.88;;;;;;;9.21;100.00;101327.66;5093816;28;20107;-67
2022/10/20 04:25:47;;;;;;;24.48;14.15;;;;;;;9.20;100.00;101331.16;5082746;28;20515;-66
2022/10/20 04:28:17;;;;;;;28.02;13.77;;;;;;;9.21;100.00;101327.66;5094705;28;20106;-66
2022/10/20 04:30:43;;;;;;;24.25;14.13;;;;;;;9.21;100.00;101317.16;5092397;28;20810;-68
2022/10/20 04:33:10;;;;;;;26.70;14.18;;;;;;;9.22;100.00;101306.69;5088275;28;20122;-67
2022/10/20 04:35:35;;;;;;;28.23;14.75;;;;;;;9.24;100.00;101301.50;5089293;28;20423;-67
2022/10/20 04:38:00;;;;;;;23.80;14.63;;;;;;;9.25;100.00;101288.41;5080441;28;20060;-67
2022/10/20 04:40:26;;;;;;;27.65;14.68;;;;;;;9.26;100.00;101286.66;5076155;28;20027;-68
2022/10/20 04:42:51;;;;;;;27.90;14.60;;;;;;;9.24;100.00;101276.13;5091697;28;20027;-68
2022/10/20 04:45:16;;;;;;;25.20;14.23;;;;;;;9.24;100.00;101276.13;5082508;28;20078;-66
2022/10/20 04:47:42;;;;;;;26.88;13.98;;;;;;;9.25;100.00;101277.91;5082930;28;20029;-67
2022/10/20 04:50:08;;;;;;;27.58;14.05;;;;;;;9.25;100.00;101283.16;5084640;28;20471;-67
2022/10/20 04:52:33;;;;;;;30.23;15.52;;;;;;;9.26;100.00;101284.94;5088595;28;20567;-67
2022/10/20 04:54:58;;;;;;;26.85;14.25;;;;;;;9.26;100.00;101291.91;5086957;28;20028;-67
2022/10/20 04:57:24;;;;;;;24.23;14.32;;;;;;;9.27;100.00;101296.34;5085868;28;20044;-67
2022/10/20 04:59:49;;;;;;;24.85;13.55;;;;;;;9.26;100.00;101305.97;5090474;28;20027;-68
2022/10/20 05:02:14;;;;;;;24.98;15.63;;;;;;;9.27;100.00;101298.97;5086961;28;20025;-67
2022/10/20 05:04:40;;;;;;;27.52;15.10;;;;;;;9.29;100.00;101289.38;5092508;28;20388;-67
2022/10/20 05:07:05;;;;;;;25.88;14.15;;;;;;;9.30;100.00;101285.03;5084280;28;20046;-66
2022/10/20 05:09:31;;;;;;;22.80;13.80;;;;;;;9.31;100.00;101255.31;5093796;28;20035;-68
2022/10/20 05:11:58;;;;;;;29.05;14.88;;;;;;;9.31;100.00;101239.53;5079317;28;20116;-67
2022/10/20 05:14:23;;;;;;;27.13;15.10;;;;;;;9.35;100.00;101231.78;5087831;28;20122;-68
2022/10/20 05:16:49;;;;;;;27.88;14.77;;;;;;;9.35;100.00;101237.03;5093029;28;20518;-67
2022/10/20 05:19:15;;;;;;;28.88;15.02;;;;;;;9.35;100.00;101250.16;5091837;28;20032;-65
2022/10/20 05:21:41;;;;;;;26.13;14.90;;;;;;;9.33;100.00;101236.09;5074509;28;20025;-67
2022/10/20 05:24:06;;;;;;;28.65;15.02;;;;;;;9.34;100.00;101239.63;5077853;28;20032;-67
2022/10/20 05:26:36;;;;;;;29.05;15.75;;;;;;;9.36;100.00;101233.56;5082790;28;20063;-68
2022/10/20 05:29:07;;;;;;;26.65;15.45;;;;;;;9.36;100.00;101228.31;5091020;28;20036;-66
2022/10/20 05:31:37;;;;;;;28.38;14.88;;;;;;;9.37;100.00;101219.59;5090017;28;20030;-67
2022/10/20 05:34:02;;;;;;;31.52;16.10;;;;;;;9.38;100.00;101225.72;5089705;28;20514;-67
2022/10/20 05:36:28;;;;;;;27.10;14.50;;;;;;;9.38;100.00;101223.09;5080197;28;20106;-67
2022/10/20 05:38:54;;;;;;;29.17;15.35;;;;;;;9.38;100.00;101213.47;5080523;28;20032;-67
2022/10/20 05:41:22;;;;;;;31.60;15.38;;;;;;;9.38;100.00;101221.34;5072844;28;20430;-67
2022/10/20 05:43:56;;;;;;;30.15;15.30;;;;;;;9.38;100.00;101216.09;5090844;28;20036;-67
2022/10/20 05:46:22;;;;;;;26.63;15.07;;;;;;;9.37;100.00;101206.47;5084034;28;20112;-66
2022/10/20 05:48:47;;;;;;;27.02;15.40;;;;;;;9.38;100.00;101195.09;5082207;28;20028;-67
2022/10/20 05:51:17;;;;;;;26.85;14.88;;;;;;;9.40;100.00;101182.91;5078982;28;20032;-68
2022/10/20 05:53:43;;;;;;;28.83;15.45;;;;;;;9.40;100.00;101188.16;5078826;28;20034;-67
2022/10/20 05:56:11;;;;;;;28.75;14.88;;;;;;;9.40;100.00;101192.50;5089841;28;20391;-67
2022/10/20 05:58:37;;;;;;;29.55;15.52;;;;;;;9.40;100.00;101182.91;5076381;28;20035;-67
2022/10/20 06:01:08;;;;;;;35.60;15.63;;;;;;;9.41;100.00;101195.19;5082268;28;20029;-68
2022/10/20 06:03:34;;;;;;;27.73;14.55;;;;;;;9.44;100.00;101194.34;5080324;28;20035;-69
2022/10/20 06:06:01;;;;;;;28.52;14.60;;;;;;;9.41;100.00;101203.06;5086100;28;20046;-68
2022/10/20 06:08:33;;;;;;;33.30;15.13;;;;;;;9.42;100.00;101204.81;5082793;28;20024;-69
2022/10/20 06:11:06;;;;;;;28.77;15.25;;;;;;;9.42;100.00;101190.81;5079655;28;20055;-68
2022/10/20 06:13:33;;;;;;;28.90;14.65;;;;;;;9.42;100.00;101181.19;5080942;28;20024;-68
2022/10/20 06:16:08;;;;;;;28.23;16.25;;;;;;;9.44;100.00;101194.34;5088381;28;20027;-69
2022/10/20 06:18:34;;;;;;;31.38;16.00;;;;;;;9.44;100.00;101200.53;5080244;28;20060;-68
2022/10/20 06:21:04;;;;;;;32.13;15.07;;;;;;;9.45;100.00;101191.81;5079451;28;20153;-68
2022/10/20 06:23:29;;;;;;;25.05;14.98;;;;;;;9.48;100.00;101187.47;5083458;28;20468;-69
2022/10/20 06:26:00;;;;;;;27.27;14.63;;;;;;;9.48;100.00;101174.31;5084554;28;20059;-68
2022/10/20 06:28:28;;;;;;;32.22;16.35;;;;;;;9.50;100.00;101177.91;5084387;28;20048;-68
2022/10/20 06:30:53;;;;;;;30.60;15.52;;;;;;;9.50;100.00;101177.91;5089455;28;20107;-69
2022/10/20 06:33:19;;;;;;;25.17;13.82;;;;;;;9.51;100.00;101180.56;5074363;28;20111;-69
2022/10/20 06:35:44;;;;;;;25.65;15.88;;;;;;;9.52;100.00;101181.44;5081665;28;20103;-68
2022/10/20 06:38:09;;;;;;;28.58;15.85;;;;;;;9.52;100.00;101184.97;5084342;28;20029;-69
2022/10/20 06:40:35;;;;;;;33.90;16.42;;;;;;;9.53;100.00;101210.38;5082823;28;20028;-67
2022/10/20 06:43:00;;;;;;;37.33;14.77;;;;;;;9.54;100.00;101216.53;5074571;28;20024;-68
2022/10/20 06:45:25;;;;;;;25.90;14.45;;;;;;;9.57;100.00;101209.59;5074714;28;20119;-68
2022/10/20 06:47:51;;;;;;;32.08;15.93;;;;;;;9.59;100.00;101197.41;5084147;28;20035;-68
2022/10/20 06:50:16;;;;;;;30.13;16.77;;;;;;;9.62;100.00;101178.22;5080300;28;20535;-68
2022/10/20 06:52:41;;;;;;;27.95;14.88;;;;;;;9.62;100.00;101189.59;5080303;28;20433;-68
2022/10/20 06:55:07;;;;;;;34.25;16.92;;;;;;;9.66;100.00;101187.03;5073734;28;20048;-68
2022/10/20 06:57:32;;;;;;;33.47;16.42;;;;;;;9.66;100.00;101185.31;5077842;28;20049;-68
2022/10/20 06:59:58;;;;;;;26.83;15.13;;;;;;;9.68;100.00;101177.47;5074064;28;20067;-67
2022/10/20 07:02:23;;;;;;;40.20;17.05;;;;;;;9.69;100.00;101169.63;5080186;28;20047;-68
2022/10/20 07:04:49;;;;;;;24.88;14.80;;;;;;;9.71;100.00;101178.47;5079786;28;20025;-68
2022/10/20 07:07:14;;;;;;;34.53;15.73;;;;;;;9.73;100.00;101182.00;5079749;28;20020;-68
2022/10/20 07:09:40;;;;;;;29.73;16.95;;;;;;;9.77;100.00;101178.59;5081551;28;20024;-69
2022/10/20 07:12:05;;;;;;;29.75;16.20;;;;;;;9.79;100.00;101171.66;5080868;28;20028;-69
2022/10/20 07:14:30;;;;;;;29.25;15.70;;;;;;;9.82;100.00;101165.59;5079498;28;20392;-68
2022/10/20 07:16:56;;;;;;;31.98;15.70;;;;;;;9.85;100.00;101170.00;5080449;28;20031;-68
2022/10/20 07:19:21;;;;;;;26.77;16.25;;;;;;;9.86;100.00;101169.16;5079237;28;20032;-67
2022/10/20 07:21:46;;;;;;;30.30;15.63;;;;;;;9.90;100.00;101173.63;5092789;28;20386;-68
2022/10/20 07:24:13;;;;;;;29.00;16.83;;;;;;;9.90;100.00;101164.03;5092629;28;20020;-67
2022/10/20 07:26:40;;;;;;;25.85;14.90;;;;;;;9.93;100.00;101164.09;5086861;28;20028;-67
2022/10/20 07:29:05;;;;;;;30.05;16.05;;;;;;;9.98;100.00;101166.81;5073667;28;20035;-69
2022/10/20 07:31:34;;;;;;;28.35;16.40;;;;;;;10.01;100.00;101166.00;5076989;28;20033;-68
2022/10/20 07:34:00;;;;;;;34.55;17.02;;;;;;;10.05;100.00;101168.78;5080653;28;20429;-68
2022/10/20 07:36:28;;;;;;;27.58;15.63;;;;;;;10.09;100.00;101159.19;5078497;28;20036;-68
2022/10/20 07:38:56;;;;;;;26.25;14.88;;;;;;;10.11;100.00;101161.00;5090122;28;20043;-69
2022/10/20 07:41:21;;;;;;;35.97;16.63;;;;;;;10.12;100.00;101149.66;5076110;28;20052;-69
2022/10/20 07:43:47;;;;;;;26.88;15.40;;;;;;;10.18;100.00;101148.03;5085298;28;20071;-68
2022/10/20 07:46:13;;;;;;;28.13;15.63;;;;;;;10.21;100.00;101137.56;5083935;28;20028;-67
2022/10/20 07:48:39;;;;;;;31.75;16.73;;;;;;;10.22;100.00;101142.84;5072672;28;20100;-67
2022/10/20 07:51:15;;;;;;;32.65;15.75;;;;;;;10.29;100.00;101157.94;5090936;28;20099;-67
2022/10/20 07:53:41;;;;;;;32.85;16.30;;;;;;;10.33;100.00;101158.88;5089444;28;20043;-68
2022/10/20 07:56:06;;;;;;;30.35;16.08;;;;;;;10.35;100.00;101157.22;5091120;28;20495;-67
2022/10/20 07:58:32;;;;;;;26.77;15.45;;;;;;;10.37;100.00;101158.13;5080988;28;20379;-68
2022/10/20 08:00:57;;;;;;;25.80;15.25;;;;;;;10.42;100.00;101158.25;5078130;28;20099;-68
2022/10/20 08:03:22;;;;;;;25.65;15.40;;;;;;;10.44;100.00;101156.53;5079690;28;20491;-68
2022/10/20 08:05:48;;;;;;;30.25;15.77;;;;;;;10.51;100.00;101160.19;5084031;28;20032;-67
2022/10/20 08:08:13;;;;;;;30.58;16.42;;;;;;;10.55;100.00;101169.91;5082373;28;20055;-66
2022/10/20 08:10:38;;;;;;;36.83;17.67;;;;;;;10.58;100.00;101165.63;5091518;28;20085;-67
2022/10/20 08:13:03;;;;;;;26.10;15.40;;;;;;;10.61;100.00;101154.28;5092230;28;20081;-68
2022/10/20 08:15:29;;;;;;;24.42;14.00;;;;;;;10.66;100.00;101151.72;5077627;28;20069;-68
2022/10/20 08:17:54;;;;;;;24.73;14.15;;;;;;;10.69;100.00;101147.41;5085642;28;20574;-67
2022/10/20 08:20:20;;;;;;;27.90;14.95;;;;;;;10.71;100.00;101153.59;5084661;28;20418;-68
2022/10/20 08:22:46;;;;;;;20.33;14.23;;;;;;;10.76;100.00;101149.31;5083142;28;20060;-68
2022/10/20 08:25:13;;;;;;;23.73;14.10;;;;;;;10.76;100.00;101153.69;5076176;28;20056;-68
2022/10/20 08:27:39;;;;;;;21.63;14.00;;;;;;;10.80;100.00;101153.78;5088642;28;20024;-67
2022/10/20 08:30:05;;;;;;;23.33;14.02;;;;;;;10.84;100.00;101140.69;5079789;28;20028;-68
2022/10/20 08:32:30;;;;;;;23.27;13.55;;;;;;;10.86;100.00;101138.97;5078539;28;20369;-68
2022/10/20 08:34:55;;;;;;;25.48;14.65;;;;;;;10.88;100.00;101139.88;5076833;28;20034;-68
2022/10/20 08:37:21;;;;;;;22.88;15.23;;;;;;;10.92;100.00;101139.09;5080154;28;20039;-68
2022/10/20 08:39:46;;;;;;;23.75;14.18;;;;;;;10.96;100.00;101130.41;5088719;28;20436;-68
2022/10/20 08:42:12;;;;;;;27.63;14.90;;;;;;;10.99;100.00;101126.94;5079288;28;20078;-67
2022/10/20 08:44:42;;;;;;;24.35;13.60;;;;;;;11.01;100.00;101119.97;5083579;28;20054;-67
2022/10/20 08:47:31;;;;;;;22.27;14.10;;;;;;;11.06;100.00;101115.69;5088520;28;20032;-67
2022/10/20 08:49:57;;;;;;;25.60;14.98;;;;;;;11.12;100.00;101121.94;5079989;28;20529;-68
2022/10/20 08:52:25;;;;;;;26.50;14.45;;;;;;;11.14;100.00;101120.22;5093578;28;20379;-68
2022/10/20 08:54:56;;;;;;;21.45;13.90;;;;;;;11.18;100.00;101115.00;5091482;28;20111;-66
2022/10/20 08:57:26;;;;;;;22.02;14.25;;;;;;;11.22;100.00;101123.00;5089808;28;20095;-67
2022/10/20 08:59:53;;;;;;;24.83;15.02;;;;;;;11.24;100.00;101120.38;5072412;28;20040;-67
2022/10/20 09:02:20;;;;;;;27.42;14.38;;;;;;;11.23;100.00;101113.34;5086493;28;20027;-68
2022/10/20 09:04:56;;;;;;;26.02;15.00;;;;;;;11.30;100.00;101120.50;5079130;28;20504;-67
2022/10/20 09:07:32;;;;;;;25.45;14.48;;;;;;;11.29;100.00;101109.06;5081760;28;20023;-68
2022/10/20 09:10:36;;;;;;;22.75;14.82;;;;;;;11.33;100.00;101103.84;5088172;28;20494;-68
2022/10/20 09:13:24;;;;;;;23.70;14.93;;;;;;;11.38;100.00;101095.19;5088389;28;20029;-67
2022/10/20 09:15:54;;;;;;;27.45;15.15;;;;;;;11.41;100.00;101102.25;5079896;28;20024;-68
2022/10/20 09:18:20;;;;;;;26.75;15.10;;;;;;;11.41;100.00;101092.59;5084522;28;20103;-67
2022/10/20 09:20:52;;;;;;;26.20;14.80;;;;;;;11.44;100.00;101086.50;5074584;28;20106;-68
2022/10/20 09:23:39;;;;;;;24.40;14.40;;;;;;;11.46;100.00;101090.03;5090562;28;20480;-68
2022/10/20 09:26:11;;;;;;;22.88;14.57;;;;;;;11.49;100.00;101084.84;5087587;28;20381;-67
2022/10/20 09:28:37;;;;;;;27.73;15.80;;;;;;;11.50;100.00;101069.91;5080326;28;20035;-68
2022/10/20 09:31:02;;;;;;;25.50;15.30;;;;;;;11.52;100.00;101066.44;5080901;28;20054;-68
2022/10/20 09:33:32;;;;;;;25.45;15.00;;;;;;;11.55;100.00;101063.81;5089064;28;20032;-67
2022/10/20 09:36:12;;;;;;;22.42;14.05;;;;;;;11.61;100.00;101068.31;5093693;28;20064;-67
2022/10/20 09:38:42;;;;;;;24.65;14.50;;;;;;;11.62;100.00;101062.19;5092157;28;20024;-67
2022/10/20 09:41:17;;;;;;;29.25;16.17;;;;;;;11.62;100.00;101060.44;5094533;28;20103;-68
2022/10/20 09:44:06;;;;;;;22.70;15.07;;;;;;;11.71;100.00;101064.97;5078020;28;20024;-65
2022/10/20 09:46:53;;;;;;;25.70;14.63;;;;;;;11.77;100.00;101070.34;5074397;28;20032;-67
2022/10/20 09:49:24;;;;;;;23.77;13.93;;;;;;;11.84;100.00;101083.59;5091658;28;20027;-67
2022/10/20 09:51:51;;;;;;;26.80;14.50;;;;;;;11.91;100.00;101075.81;5077962;28;20137;-68
2022/10/20 09:54:18;;;;;;;33.05;14.55;;;;;;;11.95;100.00;101082.94;5074101;28;20020;-68
2022/10/20 09:56:45;;;;;;;24.35;15.20;;;;;;;12.00;100.00;101080.34;5078922;28;20189;-67
2022/10/20 09:59:32;;;;;;;23.80;14.63;;;;;;;12.02;100.00;101054.91;5073436;28;20058;-67
2022/10/20 10:02:00;;;;;;;22.17;14.70;;;;;;;12.07;100.00;101042.69;5086283;28;20043;-69
2022/10/20 10:04:34;;;;;;;21.98;13.52;;;;;;;12.11;100.00;101044.50;5079550;28;20031;-70
2022/10/20 10:06:59;;;;;;;26.30;15.05;;;;;;;12.17;100.00;101042.78;5093753;28;20464;-68
2022/10/20 10:09:36;;;;;;;21.00;13.93;;;;;;;12.22;100.00;101051.63;5089496;28;20025;-67
2022/10/20 10:12:16;;;;;;;22.35;14.23;;;;;;;12.28;100.00;101046.47;5073705;28;20027;-68
2022/10/20 10:15:24;;;;;;;28.23;14.15;;;;;;;12.37;100.00;101053.59;5087909;28;20548;-68
2022/10/20 10:17:50;;;;;;;27.10;15.00;;;;;;;12.43;100.00;101046.63;5063109;28;20047;-67
2022/10/20 10:20:15;;;;;;;23.02;14.93;;;;;;;12.46;100.00;101041.38;5079049;28;20020;-68
2022/10/20 10:22:42;;;;;;;25.90;14.82;;;;;;;12.48;100.00;101023.81;5086873;28;20038;-67
2022/10/20 10:25:18;;;;;;;27.90;15.30;;;;;;;12.46;100.00;101015.00;5075904;28;20060;-67
2022/10/20 10:27:59;;;;;;;25.83;15.38;;;;;;;12.47;100.00;100994.78;5074269;28;20070;-68
2022/10/20 10:30:29;;;;;;;25.80;14.70;;;;;;;12.45;100.00;100971.03;5080354;28;20044;-68
2022/10/20 10:32:55;;;;;;;31.10;16.83;;;;;;;12.45;100.00;100981.56;5077129;28;20032;-68
2022/10/20 10:35:32;;;;;;;30.02;16.27;;;;;;;12.51;100.00;101000.97;5084849;28;20372;-67
2022/10/20 10:37:58;;;;;;;26.25;15.00;;;;;;;12.53;100.00;100988.69;5073340;28;20031;-68
2022/10/20 10:40:39;;;;;;;26.85;16.15;;;;;;;12.55;100.00;100989.59;5092479;28;20042;-68
2022/10/20 10:43:39;;;;;;;26.35;14.88;;;;;;;12.56;100.00;100984.34;5081806;28;20051;-68
2022/10/20 10:46:15;;;;;;;25.33;15.10;;;;;;;12.60;100.00;100982.59;5050982;28;20048;-68
2022/10/20 10:48:50;;;;;;;28.63;15.98;;;;;;;12.65;100.00;100988.81;5079415;28;20042;-68
2022/10/20 10:51:26;;;;;;;29.77;17.13;;;;;;;12.66;100.00;100982.66;5089484;28;20024;-67
2022/10/20 10:54:13;;;;;;;26.58;15.57;;;;;;;12.66;100.00;100974.75;5085828;28;20032;-67
2022/10/20 10:56:50;;;;;;;28.83;16.20;;;;;;;12.65;100.00;100973.84;5092990;28;20434;-66
2022/10/20 10:59:18;;;;;;;29.80;16.35;;;;;;;12.64;100.00;100950.97;5074564;28;20028;-67
2022/10/20 11:02:04;;;;;;;26.38;15.90;;;;;;;12.68;100.00;100961.56;5076752;28;20392;-67
2022/10/20 11:04:47;;;;;;;31.65;16.15;;;;;;;12.72;100.00;100968.63;5087870;28;20085;-66
2022/10/20 11:07:18;;;;;;;;;;;;;;;12.79;100.00;100968.72;5076793;28;20159;-67
2022/10/20 11:10:03;;;;;;;27.02;17.38;;;;;;;12.90;100.00;100962.63;5089466;28;19919;-67
2022/10/20 11:12:47;;;;;;;25.38;16.50;;;;;;;12.97;100.00;100968.00;5080439;28;20047;-67
2022/10/20 11:15:39;;;;;;;26.58;16.13;;;;;;;13.09;100.00;100975.16;5091950;28;20032;-66
2022/10/20 11:18:09;;;;;;;30.73;16.45;;;;;;;13.18;100.00;100978.72;5075574;28;20055;-67
2022/10/20 11:20:44;;;;;;;29.33;16.27;;;;;;;13.22;100.00;100981.41;5092907;28;20016;-67